Oronoco, MN (55960)

9:28 AM CDT on May 28, 2015 (GMT -0500)
Zumbro Hills | | Change Station
CLOSE
Current Station
Personal Weather Station
Location: Oronoco, MN
Elevation: 988 ft
Nearby Weather Stations

Elev 988 ft 44.15 °N, 92.54 °W | Updated 8 seconds ago

Clear
Clear
74.6 °F
Feels Like 77 °F
N
6.0
Wind Variable Wind from SW
Gusts 7.0 mph

Today
High -- | Low -- °F
--% Chance of Precip.
Yesterday
High -- | Low -- °F
Precip. -- in
5:32 AM 8:42 PM
Waxing Gibbous, 76% visible
Pressure 30.12 in
Visibility 10.0 miles
Clouds Clear
Heat Index 77 °F
Dew Point 62 °F
Humidity 66%
Rainfall 0.00 in
Snow Depth Not available.
UV 5 out of 12
Pollen 7.80 out of 12
Air Quality Not available.
Flu Activity Sporadic
METAR K9MN 281413Z AUTO 20005KT 10SM CLR 22/14 A3012 RMK AO1 T02240137

More Conditions Fewer Conditions

Pressure 30.12 in
Visibility 10.0 miles
Clouds Clear
Heat Index 77 °F
Dew Point 62 °F
Humidity 66%
Rainfall 0.00 in
Snow Depth Not available.
UV 5 out of 12
Pollen 7.80 out of 12
Air Quality Not available.
Flu Activity Sporadic
METAR K9MN 281413Z AUTO 20005KT 10SM CLR 22/14 A3012 RMK AO1 T02240137

More Conditions Fewer Conditions

10-Day Weather Forecast

Almanac

Astronomy

May. 28, 2015 Rise Set
Actual Time
Civil Twilight
Nautical Twilight
Astronomical Twilight
Moon
Length of Visible Light
Length of Day
Tomorrow will be .
, % of the Moon is Illuminated

Today's Extremes

State Highs State Lows

Community

WunderPhotos

Upload Photos

1,824,983 photos uploaded!

WunderBlogs® & News

Nearby

Air Quality

  Air Quality AQ Index Pollutant
Not available.

Snow Depth

Station Depth Elevation

Earthquake Activity

City Distance Mag. Time & Date
Minimum magnitude displayed is 2.5.

Coastal Water Temperatures

Place Temperature

Stations

Nearby Weather Stations

Station Location Temp. Windchill Dew Point Humidity Wind Precip. Elev Updated Type